SQUAM R @ ASHLAND: From 11/03/2018 00:00 to 11/19/2018 00:00

Date STAGE [FT] FLOW [CFS] PRECIPITATION INCREMENT [IN] AIR TEMPERATURE [DEGF] PRECIPITATION TOTAL [IN]
11/17/2018 14:00 11.18 244.1 0.00 42.8 --
11/17/2018 13:00 11.19 247.0 0.02 43.2 --
11/17/2018 12:00 11.19 247.0 0.00 41.8 --
11/17/2018 11:00 11.19 247.0 0.00 39.5 --
11/17/2018 10:00 11.19 247.0 0.00 36.3 --
11/17/2018 09:00 11.19 247.0 0.01 35.3 --
11/17/2018 08:00 11.19 247.0 0.01 37.3 --
11/17/2018 07:00 11.19 247.0 -- 128.0 --
11/17/2018 06:00 11.19 247.0 0.01 35.6 --
11/17/2018 05:00 11.19 247.0 0.00 35.9 --
11/17/2018 04:00 11.19 247.0 0.00 34.9 --
11/17/2018 03:00 11.19 247.0 0.00 33.0 --
11/17/2018 02:00 11.19 247.0 0.00 32.3 --
11/17/2018 01:00 11.19 247.0 0.00 30.2 --
11/17/2018 00:00 11.19 247.0 0.00 28.9 --
11/16/2018 23:00 11.19 247.0 0.00 29.6 --
11/16/2018 22:00 11.19 247.0 0.00 29.5 --
11/16/2018 21:00 11.19 247.0 0.00 29.9 --
11/16/2018 20:00 11.19 247.0 0.00 31.0 --
11/16/2018 19:00 11.19 247.0 0.00 31.5 --
11/16/2018 18:00 11.19 247.0 0.00 31.7 --
11/16/2018 17:00 11.19 247.0 0.00 32.0 --
11/16/2018 16:00 11.19 247.0 0.01 33.1 --
11/16/2018 15:00 11.19 247.0 0.00 32.9 --
11/16/2018 14:00 11.19 247.0 0.00 32.5 --
11/16/2018 13:00 11.19 247.0 0.00 31.4 --
11/16/2018 12:00 11.19 247.0 0.00 31.2 --
11/16/2018 11:00 11.19 247.0 0.00 29.6 --
11/16/2018 10:00 11.19 247.0 0.00 29.4 --
11/16/2018 09:00 11.20 250.0 0.00 28.9 --
11/16/2018 08:00 11.20 250.0 0.00 28.4 --
11/16/2018 07:00 11.20 250.0 0.00 27.8 --
11/16/2018 06:00 11.20 250.0 0.00 26.0 --
11/16/2018 05:00 11.19 247.0 0.00 25.1 --
11/16/2018 04:00 11.20 250.0 0.00 24.3 --
11/16/2018 03:00 11.20 250.0 0.00 22.9 --
11/16/2018 02:00 11.19 247.0 0.00 22.8 --
11/16/2018 01:00 11.19 247.0 0.00 23.3 --
11/16/2018 00:00 11.19 247.0 0.00 25.5 0.01
11/15/2018 23:00 11.19 247.0 0.00 27.5 --
11/15/2018 22:00 11.19 247.0 0.00 27.4 --
11/15/2018 21:00 11.19 247.0 0.00 26.8 --
11/15/2018 20:00 11.19 247.0 0.00 26.4 --
11/15/2018 19:00 11.19 247.0 0.00 26.3 --
11/15/2018 18:00 11.20 250.0 0.00 27.1 --
11/15/2018 17:00 11.19 247.0 0.00 27.4 --
11/15/2018 16:00 11.19 247.0 0.00 28.0 --
11/15/2018 15:00 11.19 247.0 0.00 27.7 --
11/15/2018 14:00 11.20 250.0 0.00 27.2 --
11/15/2018 13:00 11.20 250.0 0.00 25.0 --
11/15/2018 12:00 11.20 250.0 0.00 23.0 --
11/15/2018 11:00 10.96 183.2 0.00 21.3 --
11/15/2018 10:00 10.96 183.2 0.00 18.5 --
11/15/2018 09:00 10.96 183.2 0.00 16.6 --
11/15/2018 08:00 10.96 183.2 0.00 15.8 --
11/15/2018 07:00 10.96 183.2 0.00 15.7 --
11/15/2018 06:00 10.96 183.2 0.00 14.9 --
11/15/2018 05:00 10.96 183.2 0.00 14.7 --
11/15/2018 04:00 10.96 183.2 0.00 13.4 --
11/15/2018 03:00 10.96 183.2 0.00 15.2 --
11/15/2018 02:00 10.95 180.8 0.00 14.7 --
11/15/2018 01:00 10.95 180.8 0.00 16.2 --
11/15/2018 00:00 10.96 183.2 0.00 15.4 0.00
11/14/2018 23:00 10.95 180.8 0.00 14.5 --
11/14/2018 22:00 10.95 180.8 0.00 15.2 --
11/14/2018 21:00 10.96 183.2 0.00 17.0 --
11/14/2018 20:00 10.95 180.8 0.00 18.1 --
11/14/2018 19:00 10.96 183.2 0.00 18.6 --
11/14/2018 18:00 10.96 183.2 0.00 20.0 --
11/14/2018 17:00 10.96 183.2 0.00 21.7 --
11/14/2018 16:00 10.96 183.2 0.00 23.6 --
11/14/2018 15:00 10.96 183.2 0.00 24.1 --
11/14/2018 14:00 10.96 183.2 0.00 24.9 --
11/14/2018 13:00 10.96 183.2 0.00 24.1 --
11/14/2018 12:00 10.96 183.2 0.00 23.8 --
11/14/2018 11:00 10.96 183.2 0.00 23.1 --
11/14/2018 10:00 10.96 183.2 0.00 22.3 --
11/14/2018 09:00 10.97 185.6 0.00 21.3 --
11/14/2018 08:00 10.96 183.2 0.00 20.8 --
11/14/2018 07:00 10.96 183.2 0.00 21.4 --
11/14/2018 06:00 10.96 183.2 0.00 22.1 --
11/14/2018 05:00 10.97 185.6 0.00 22.9 --
11/14/2018 04:00 10.96 183.2 0.00 24.0 --
11/14/2018 03:00 10.96 183.2 0.00 25.1 --
11/14/2018 02:00 10.96 183.2 0.00 26.9 --
11/14/2018 01:00 10.96 183.2 0.00 28.6 --
11/14/2018 00:00 10.97 185.6 0.00 31.3 0.00
11/13/2018 23:00 10.96 183.2 0.00 33.7 --
11/13/2018 22:00 10.97 185.6 0.00 36.5 --
11/13/2018 21:00 10.97 185.6 0.01 36.7 --
11/13/2018 20:00 10.96 183.2 0.01 36.3 --
11/13/2018 19:00 10.97 185.6 0.01 36.6 --
11/13/2018 18:00 10.97 185.6 0.01 36.8 --
11/13/2018 17:00 10.97 185.6 0.03 37.3 --
11/13/2018 16:00 10.97 185.6 0.03 36.8 --
11/13/2018 15:00 10.97 185.6 0.04 36.3 --
11/13/2018 14:00 10.97 185.6 0.09 36.0 --
11/13/2018 13:00 10.97 185.6 0.06 35.6 --
11/13/2018 12:00 10.96 183.2 0.05 35.0 --
11/13/2018 11:00 10.96 183.2 0.00 34.8 --
11/13/2018 10:00 10.96 183.2 0.00 35.0 --
11/13/2018 09:00 10.95 180.8 0.00 34.2 --
11/13/2018 08:00 10.95 180.8 0.00 33.5 --
11/13/2018 07:00 10.96 183.2 0.00 33.2 --
11/13/2018 06:00 10.95 180.8 0.00 32.4 --
11/13/2018 05:00 10.95 180.8 0.00 32.4 --
11/13/2018 04:00 10.95 180.8 0.00 32.9 --
11/13/2018 03:00 10.95 180.8 0.00 33.0 --
11/13/2018 02:00 10.95 180.8 0.00 33.4 --
11/13/2018 01:00 10.95 180.8 0.00 33.2 --
11/13/2018 00:00 10.95 180.8 0.00 32.9 0.34
11/12/2018 23:00 10.95 180.8 0.00 32.3 --
11/12/2018 22:00 10.95 180.8 0.00 31.4 --
11/12/2018 21:00 10.95 180.8 0.00 30.3 --
11/12/2018 20:00 10.95 180.8 0.00 30.3 --
11/12/2018 19:00 10.95 180.8 0.00 31.4 --
11/12/2018 18:00 10.95 180.8 0.00 33.7 --
11/12/2018 17:00 10.95 180.8 0.00 38.7 --
11/12/2018 16:00 10.95 180.8 0.00 44.3 --
11/12/2018 15:00 10.96 183.2 0.00 44.7 --
11/12/2018 14:00 10.96 183.2 0.00 43.2 --
11/12/2018 13:00 10.95 180.8 0.00 41.5 --
11/12/2018 12:00 10.95 180.8 0.00 39.2 --
11/12/2018 11:00 10.95 180.8 0.00 35.1 --
11/12/2018 10:00 10.95 180.8 0.00 29.9 --
11/12/2018 09:00 10.95 180.8 0.00 23.9 --
11/12/2018 08:00 10.95 180.8 0.00 22.1 --
11/12/2018 07:00 10.95 180.8 0.00 20.6 --
11/12/2018 06:00 10.95 180.8 0.00 21.3 --
11/12/2018 05:00 10.95 180.8 0.00 21.6 --
11/12/2018 04:00 10.95 180.8 0.00 22.7 --
11/12/2018 03:00 10.95 180.8 0.00 23.3 --
11/12/2018 02:00 10.95 180.8 0.00 23.7 --
11/12/2018 01:00 10.95 180.8 0.00 24.3 --
11/12/2018 00:00 10.95 180.8 0.00 25.0 0.00
11/11/2018 23:00 10.96 183.2 0.00 25.9 --
11/11/2018 22:00 10.95 180.8 0.00 25.4 --
11/11/2018 21:00 10.96 183.2 0.00 25.8 --
11/11/2018 20:00 10.95 180.8 0.00 26.7 --
11/11/2018 19:00 10.95 180.8 0.00 28.1 --
11/11/2018 18:00 10.95 180.8 0.00 30.9 --
11/11/2018 17:00 10.96 183.2 0.00 35.0 --
11/11/2018 16:00 10.96 183.2 0.00 36.6 --
11/11/2018 15:00 10.95 180.8 0.00 37.7 --
11/11/2018 14:00 10.96 183.2 0.00 36.3 --
11/11/2018 13:00 10.96 183.2 0.00 35.4 --
11/11/2018 12:00 10.96 183.2 0.00 34.2 --
11/11/2018 11:00 10.95 180.8 0.00 32.6 --
11/11/2018 10:00 10.96 183.2 0.00 30.5 --
11/11/2018 09:00 10.96 183.2 0.00 30.7 --
11/11/2018 08:00 10.96 183.2 0.00 29.1 --
11/11/2018 07:00 10.96 183.2 0.00 29.8 --
11/11/2018 06:00 10.95 180.8 0.00 30.3 --
11/11/2018 05:00 10.95 180.8 0.00 30.8 --
11/11/2018 04:00 10.95 180.8 0.00 31.8 --
11/11/2018 03:00 10.95 180.8 0.00 31.9 --
11/11/2018 02:00 10.96 183.2 0.00 32.5 --
11/11/2018 01:00 10.96 183.2 0.00 34.2 --
11/11/2018 00:00 10.95 180.8 0.00 34.0 0.00
11/10/2018 23:00 10.95 180.8 0.00 34.2 --
11/10/2018 22:00 10.96 183.2 0.00 34.7 --
11/10/2018 21:00 10.95 180.8 0.00 35.1 --
11/10/2018 20:00 10.96 183.2 0.00 34.8 --
11/10/2018 19:00 10.96 183.2 0.00 35.7 --
11/10/2018 18:00 10.95 180.8 0.00 35.9 --
11/10/2018 17:00 10.96 183.2 0.00 37.0 --
11/10/2018 16:00 10.96 183.2 0.00 38.0 --
11/10/2018 15:00 10.96 183.2 0.00 40.9 --
11/10/2018 14:00 10.96 183.2 0.00 39.3 --
11/10/2018 13:00 10.96 183.2 0.00 42.5 --
11/10/2018 12:00 10.96 183.2 0.00 40.0 --
11/10/2018 11:00 10.96 183.2 0.00 39.2 --
11/10/2018 10:00 10.96 183.2 0.00 38.2 --
11/10/2018 09:00 10.96 183.2 0.02 37.5 --
11/10/2018 08:00 10.96 183.2 0.02 36.7 --
11/10/2018 07:00 10.96 183.2 0.02 37.6 --
11/10/2018 06:00 10.96 183.2 0.02 37.5 --
11/10/2018 05:00 10.97 185.6 0.04 37.0 --
11/10/2018 04:00 10.96 183.2 0.01 36.8 --
11/10/2018 03:00 10.96 183.2 0.01 36.3 --
11/10/2018 02:00 10.96 183.2 0.02 35.3 --
11/10/2018 01:00 10.96 183.2 0.00 34.6 --
11/10/2018 00:00 10.96 183.2 0.00 34.2 0.16
11/09/2018 23:00 10.96 183.2 0.00 34.5 --
11/09/2018 22:00 10.96 183.2 0.02 33.9 --
11/09/2018 21:00 10.96 183.2 0.02 38.2 --
11/09/2018 20:00 10.95 180.8 0.02 37.4 --
11/09/2018 19:00 10.95 180.8 0.02 39.7 --
11/09/2018 18:00 10.95 180.8 0.00 42.1 --
11/09/2018 17:00 10.95 180.8 0.00 42.8 --
11/09/2018 16:00 10.94 178.4 0.00 42.9 --
11/09/2018 15:00 10.95 180.8 0.00 43.2 --
11/09/2018 14:00 10.95 180.8 0.00 43.4 --
11/09/2018 13:00 10.95 180.8 0.00 43.6 --
11/09/2018 12:00 10.95 180.8 0.00 42.5 --
11/09/2018 11:00 10.95 180.8 0.00 41.5 --
11/09/2018 10:00 10.95 180.8 0.00 37.4 --
11/09/2018 09:00 10.95 180.8 0.00 31.1 --
11/09/2018 08:00 10.95 180.8 0.00 27.8 --
11/09/2018 07:00 10.95 180.8 0.00 27.9 --
11/09/2018 06:00 10.95 180.8 0.00 29.4 --
11/09/2018 05:00 10.95 180.8 0.00 29.9 --
11/09/2018 04:00 10.95 180.8 0.00 30.4 --
11/09/2018 03:00 10.95 180.8 0.00 31.8 --
11/09/2018 02:00 10.95 180.8 0.00 32.5 --
11/09/2018 01:00 10.95 180.8 0.00 33.1 --
11/09/2018 00:00 10.94 178.4 0.00 34.5 0.08
11/08/2018 23:00 10.95 180.8 0.00 37.0 --
11/08/2018 22:00 10.95 180.8 0.00 40.0 --
11/08/2018 21:00 10.95 180.8 0.00 41.1 --
11/08/2018 20:00 10.95 180.8 0.00 40.7 --
11/08/2018 19:00 10.95 180.8 0.00 42.2 --
11/08/2018 18:00 10.95 180.8 0.00 43.0 --
11/08/2018 17:00 10.95 180.8 0.00 46.6 --
11/08/2018 16:00 10.95 180.8 0.00 48.2 --
11/08/2018 15:00 10.95 180.8 0.00 48.8 --
11/08/2018 14:00 10.95 180.8 0.00 49.1 --
11/08/2018 13:00 10.95 180.8 0.00 48.7 --
11/08/2018 12:00 10.95 180.8 0.00 47.4 --
11/08/2018 11:00 10.96 183.2 0.00 46.4 --
11/08/2018 10:00 10.95 180.8 0.00 45.9 --
11/08/2018 09:00 10.95 180.8 0.00 36.7 --
11/08/2018 08:00 10.95 180.8 0.00 33.5 --
11/08/2018 07:00 10.95 180.8 0.00 60.2 --
11/08/2018 06:00 10.95 180.8 0.00 38.0 --
11/08/2018 05:00 10.95 180.8 0.00 39.2 --
11/08/2018 04:00 10.95 180.8 0.00 42.2 --
11/08/2018 03:00 10.96 183.2 0.00 43.4 --
11/08/2018 02:00 10.95 180.8 0.00 44.4 --
11/08/2018 01:00 10.95 180.8 0.00 47.1 --
11/08/2018 00:00 10.95 180.8 0.00 46.5 0.00
11/07/2018 23:00 10.95 180.8 0.00 45.5 --
11/07/2018 22:00 10.96 183.2 0.00 38.1 --
11/07/2018 21:00 10.95 180.8 0.00 39.2 --
11/07/2018 20:00 10.95 180.8 0.00 42.0 --
11/07/2018 19:00 10.95 180.8 0.00 44.2 --
11/07/2018 18:00 10.95 180.8 0.00 50.7 --
11/07/2018 17:00 10.95 180.8 0.00 53.6 --
11/07/2018 16:00 10.96 183.2 0.00 55.2 --
11/07/2018 15:00 10.95 180.8 0.00 55.1 --
11/07/2018 14:00 10.96 183.2 0.00 55.6 --
11/07/2018 13:00 10.95 180.8 0.00 57.0 --
11/07/2018 12:00 10.95 180.8 0.00 56.3 --
11/07/2018 11:00 10.94 178.4 0.00 55.0 --
11/07/2018 10:00 10.35 64.5 0.00 53.2 --
11/07/2018 09:00 10.35 64.5 0.00 48.1 --
11/07/2018 08:00 10.35 64.5 0.00 42.1 --
11/07/2018 07:00 10.35 64.5 0.00 42.0 --
11/07/2018 06:00 10.36 66.1 0.00 43.9 --
11/07/2018 05:00 10.35 64.5 0.00 42.4 --
11/07/2018 04:00 10.35 64.5 0.00 42.6 --
11/07/2018 03:00 10.36 66.1 0.00 43.9 --
11/07/2018 02:00 10.35 64.5 0.00 43.8 --
11/07/2018 01:00 10.36 66.1 0.00 46.0 --
11/07/2018 00:00 10.36 66.1 0.00 46.0 0.00
11/06/2018 23:00 10.36 66.1 0.00 46.2 --
11/06/2018 22:00 10.36 66.1 0.00 46.1 --
11/06/2018 21:00 10.36 66.1 0.00 46.1 --
11/06/2018 20:00 10.36 66.1 0.00 46.2 --
11/06/2018 19:00 10.36 66.1 0.02 46.3 --
11/06/2018 18:00 10.36 66.1 0.02 46.6 --
11/06/2018 17:00 10.36 66.1 0.02 47.0 --
11/06/2018 16:00 10.36 66.1 0.05 47.2 --
11/06/2018 15:00 10.35 64.5 0.11 46.9 --
11/06/2018 14:00 10.35 64.5 0.02 47.2 --
11/06/2018 13:00 10.35 64.5 0.00 47.3 --
11/06/2018 12:00 10.35 64.5 0.00 46.8 --
11/06/2018 11:00 10.35 64.5 0.00 46.5 --
11/06/2018 10:00 10.35 64.5 0.00 45.8 --
11/06/2018 09:00 10.35 64.5 0.00 43.6 --
11/06/2018 08:00 10.35 64.5 0.00 42.1 --
11/06/2018 07:00 10.35 64.5 0.00 41.7 --
11/06/2018 06:00 10.35 64.5 0.00 41.8 --
11/06/2018 05:00 10.35 64.5 0.00 41.3 --
11/06/2018 04:00 10.35 64.5 0.00 41.2 --
11/06/2018 03:00 10.35 64.5 0.00 40.4 --
11/06/2018 02:00 10.35 64.5 0.04 39.7 --
11/06/2018 01:00 10.35 64.5 0.00 39.4 --
11/06/2018 00:00 10.35 64.5 0.00 39.0 0.28
11/05/2018 23:00 10.35 64.5 0.00 38.6 --
11/05/2018 22:00 10.35 64.5 0.00 38.7 --
11/05/2018 21:00 10.35 64.5 0.00 38.7 --
11/05/2018 20:00 10.35 64.5 0.00 38.9 --
11/05/2018 19:00 10.35 64.5 0.00 39.7 --
11/05/2018 18:00 10.35 64.5 0.00 39.7 --
11/05/2018 17:00 10.35 64.5 0.00 39.8 --
11/05/2018 16:00 10.35 64.5 0.00 39.6 --
11/05/2018 15:00 10.35 64.5 0.00 39.1 --
11/05/2018 14:00 10.35 64.5 0.00 38.6 --
11/05/2018 13:00 10.35 64.5 0.00 38.1 --
11/05/2018 12:00 10.35 64.5 0.00 37.7 --
11/05/2018 11:00 10.35 64.5 0.00 37.2 --
11/05/2018 10:00 10.35 64.5 0.00 35.7 --
11/05/2018 09:00 10.35 64.5 0.00 32.4 --
11/05/2018 08:00 10.35 64.5 0.00 30.7 --
11/05/2018 07:00 10.35 64.5 0.00 28.7 --
11/05/2018 06:00 10.35 64.5 0.00 27.3 --
11/05/2018 05:00 10.35 64.5 0.00 27.9 --
11/05/2018 04:00 10.35 64.5 0.00 28.0 --
11/05/2018 03:00 10.35 64.5 0.00 28.7 --
11/05/2018 02:00 10.35 64.5 0.00 28.5 --
11/05/2018 01:00 10.35 64.5 0.00 28.4 --
11/05/2018 00:00 10.35 64.5 0.00 29.3 0.00
11/04/2018 23:00 10.35 64.5 0.00 29.4 --
11/04/2018 22:00 10.35 64.5 0.00 30.2 --
11/04/2018 21:00 10.35 64.5 0.00 31.8 --
11/04/2018 20:00 10.35 64.5 0.00 33.4 --
11/04/2018 19:00 10.35 64.5 0.00 35.4 --
11/04/2018 18:00 10.35 64.5 0.00 37.4 --
11/04/2018 17:00 10.35 64.5 0.00 41.7 --
11/04/2018 16:00 10.35 64.5 0.00 43.1 --
11/04/2018 15:00 10.35 64.5 0.00 44.0 --
11/04/2018 14:00 10.35 64.5 0.00 43.7 --
11/04/2018 13:00 10.35 64.5 0.00 43.3 --
11/04/2018 12:00 10.35 64.5 0.00 42.7 --
11/04/2018 11:00 10.35 64.5 0.00 40.7 --
11/04/2018 10:00 10.35 64.5 0.00 39.4 --
11/04/2018 09:00 10.35 64.5 0.00 39.2 --
11/04/2018 08:00 10.35 64.5 0.00 39.2 --
11/04/2018 07:00 10.35 64.5 0.00 39.2 --
11/04/2018 06:00 10.35 64.5 0.00 39.4 --
11/04/2018 05:00 10.35 64.5 0.00 39.4 --
11/04/2018 04:00 10.35 64.5 0.00 38.5 --
11/04/2018 03:00 10.35 64.5 0.00 39.3 --
11/04/2018 02:00 10.35 64.5 0.00 41.2 --
11/04/2018 01:00 10.35 64.5 0.00 42.6 --
11/04/2018 00:00 10.35 64.5 0.00 42.2 0.00
11/03/2018 23:00 10.35 64.5 0.00 43.0 --
11/03/2018 22:00 10.36 66.1 0.00 43.1 --
11/03/2018 21:00 10.36 66.1 0.00 44.5 --
11/03/2018 20:00 10.36 66.1 0.00 44.8 --
11/03/2018 19:00 10.36 66.1 0.00 44.6 --
11/03/2018 18:00 10.37 67.6 0.00 45.0 --
11/03/2018 17:00 10.37 67.6 0.00 44.6 --
11/03/2018 16:00 10.37 67.6 0.10 46.4 --
11/03/2018 15:00 -- -- -- -- --
11/03/2018 14:00 -- -- -- -- --
11/03/2018 13:00 -- -- -- -- --
11/03/2018 12:00 -- -- -- -- --
11/03/2018 11:00 -- -- -- -- --
11/03/2018 10:00 -- -- -- -- --
11/03/2018 09:00 -- -- -- -- --
11/03/2018 08:00 -- -- -- -- --
11/03/2018 07:00 -- -- -- -- --
11/03/2018 06:00 -- -- -- -- --
11/03/2018 05:00 -- -- -- -- --
11/03/2018 04:00 -- -- -- -- --
11/03/2018 03:00 -- -- -- -- --
11/03/2018 02:00 -- -- -- -- --
11/03/2018 01:00 -- -- -- -- --
11/03/2018 00:00 -- -- -- -- 0.61